Terminal Aerodrome Forecast
Issued by NWS Pittsburgh, PA

Current Version | Previous Version | Text Only | Print | Product List | Glossary Off
Versions: 1 2 3 4 5 6 7 8 9 10 11 12 13 14 15 16 17 18 19 20 21 22 23 24 25 26 27 28 29 30 31 32

000
FTUS41 KPBZ 031100
TAFPIT
TAF
KPIT 031132Z 0312/0418 VRB03KT P6SM OVC100
     FM031700 13005KT 5SM -FZRA OVC020
     FM031900 18008KT 5SM -RA BR OVC008
     FM040000 20005KT 2SM -RA BR OVC005 WS020/23045KT
     FM040700 27010KT 3SM -RA OVC010
     FM041300 VRB05KT 3SM -SN OVC010=

USA.gov is the U.S. government's official web portal to all federal, state and local government web resources and services.